Switz City, Indiana
Current Conditions -  °F | °C
As of 3:55 PM on Thursday 20 Nov 2014 (Local Time) from KDCY Reporting Station
Clear Clear  
Wind Chill: 25°   Ceiling: Unl
Heat Index: 33°   Visibility: 10mi
Dew Point: 18°   Wind: 10mph
Humidity: 55%   Direction: 250°WSW
Pressure: 30.2"   Gusts: NA
Location:  39.03°N, 87.05°W
Report Text: KDCY 202055Z AUTO 25009KT 10SM CLR 01/M08 A3020 RMK AO2 T00051076
Loading
Personal Weather Stations






























Interactive Weather Map New forecast layout! Learn more

10-Day Weather Forecast

Advertisements
Track Severe Weather on mobile